Time;durP1;ratioP1;P1;durP2;ratioP2;P2;SDS_P1;SDS_P2;PMS_P1;PMS_P2;Temp;Humidity;BMP_temperature;BMP_pressure;BME280_temperature;BME280_humidity;BME280_pressure;Samples;Min_cycle;Max_cycle;Signal;HPM_P1;HPM_P2
2021/09/24 00:00:28;;;;;;;23.00;10.93;;;17.30;82.40;;;;;;4957592;28;20275;-88
2021/09/24 00:02:55;;;;;;;13.65;10.25;;;17.40;82.40;;;;;;4958899;28;20283;-89
2021/09/24 00:05:21;;;;;;;19.95;10.48;;;17.30;82.30;;;;;;4957766;28;20232;-89
2021/09/24 00:07:47;;;;;;;26.92;10.93;;;17.40;82.30;;;;;;4958286;28;20187;-88
2021/09/24 00:10:16;;;;;;;19.38;10.77;;;17.30;82.30;;;;;;4958259;28;20176;-88
2021/09/24 00:12:42;;;;;;;23.05;11.43;;;17.30;82.60;;;;;;4942277;29;20228;-88
2021/09/24 00:15:11;;;;;;;20.70;12.02;;;17.20;82.60;;;;;;4958585;28;20198;-88
2021/09/24 00:20:59;;;;;;;21.95;12.60;;;17.20;83.00;;;;;;4961467;29;20271;-89
2021/09/24 00:23:24;;;;;;;33.60;15.03;;;17.20;82.90;;;;;;4959320;28;20299;-89
2021/09/24 00:25:50;;;;;;;28.60;13.73;;;17.40;82.70;;;;;;4959468;28;20176;-87
2021/09/24 00:28:16;;;;;;;21.17;13.23;;;17.30;82.80;;;;;;4959998;28;20181;-88
2021/09/24 00:30:41;;;;;;;24.73;14.67;;;17.30;83.00;;;;;;4964751;28;20176;-89
2021/09/24 00:33:07;;;;;;;21.57;13.33;;;17.20;83.10;;;;;;4963065;28;20316;-89
2021/09/24 00:35:33;;;;;;;23.30;15.10;;;17.30;83.30;;;;;;4963832;28;20180;-88
2021/09/24 00:37:59;;;;;;;32.27;16.43;;;17.40;83.10;;;;;;4979111;28;20552;-89
2021/09/24 00:40:24;;;;;;;30.83;19.00;;;17.30;83.20;;;;;;4980852;28;20176;-88
2021/09/24 00:42:50;;;;;;;30.80;16.80;;;17.20;83.40;;;;;;4978685;28;20215;-91
2021/09/24 00:45:20;;;;;;;36.10;18.23;;;17.40;83.30;;;;;;4979784;28;20218;-90
2021/09/24 00:47:47;;;;;;;50.03;25.10;;;17.40;83.10;;;;;;4976447;28;20173;-90
2021/09/24 00:50:12;;;;;;;49.63;23.52;;;17.30;83.20;;;;;;4960409;28;20188;-90
2021/09/24 00:52:38;;;;;;;43.27;22.07;;;17.30;83.30;;;;;;4960991;28;20272;-90
2021/09/24 00:55:05;;;;;;;37.53;22.33;;;17.40;83.30;;;;;;4958943;28;20196;-90
2021/09/24 00:57:31;;;;;;;36.70;21.10;;;17.40;83.30;;;;;;4959366;29;20720;-90
2021/09/24 00:59:57;;;;;;;43.20;24.70;;;17.50;83.30;;;;;;4960901;29;20220;-90
2021/09/24 01:02:22;;;;;;;41.13;23.10;;;17.50;83.10;;;;;;4958977;28;20207;-90
2021/09/24 01:04:48;;;;;;;40.37;21.20;;;17.50;83.10;;;;;;4959352;29;20423;-90
2021/09/24 01:07:14;;;;;;;35.70;21.60;;;17.50;83.10;;;;;;4959625;29;20183;-90
2021/09/24 01:09:40;;;;;;;47.87;22.90;;;17.50;82.90;;;;;;4961176;29;20235;-90
2021/09/24 01:12:07;;;;;;;43.30;21.77;;;17.60;82.90;;;;;;4961345;28;20964;-90
2021/09/24 01:14:33;;;;;;;47.47;24.27;;;17.70;82.60;;;;;;4962759;29;20462;-90
2021/09/24 01:16:59;;;;;;;44.33;23.37;;;17.70;82.50;;;;;;4957578;28;20656;-90
2021/09/24 01:19:27;;;;;;;45.53;23.45;;;17.60;82.50;;;;;;4942313;29;20185;-88
2021/09/24 01:21:53;;;;;;;44.67;23.73;;;17.60;82.70;;;;;;4957621;29;20189;-89
2021/09/24 01:24:19;;;;;;;66.68;29.50;;;17.50;83.00;;;;;;4957607;28;20288;-88
2021/09/24 01:26:54;;;;;;;50.67;26.42;;;17.50;83.20;;;;;;4957399;29;20617;-89
2021/09/24 01:29:22;;;;;;;72.13;29.95;;;17.50;83.30;;;;;;4957449;29;20176;-88
2021/09/24 01:31:48;;;;;;;68.00;31.58;;;17.60;83.10;;;;;;4957338;28;20232;-89
2021/09/24 01:34:14;;;;;;;60.07;28.53;;;17.50;83.40;;;;;;4958715;28;20703;-88
2021/09/24 01:36:40;;;;;;;63.70;29.93;;;17.60;83.50;;;;;;4957567;29;20420;-88
2021/09/24 01:39:09;;;;;;;63.80;30.13;;;17.70;83.50;;;;;;4957392;29;20424;-88
2021/09/24 01:41:41;;;;;;;60.80;28.33;;;17.80;83.00;;;;;;4957113;28;20176;-88
2021/09/24 01:44:07;;;;;;;56.38;29.08;;;17.70;83.00;;;;;;4958658;28;20577;-89
2021/09/24 01:46:41;;;;;;;61.43;25.77;;;17.70;83.20;;;;;;4957201;29;20192;-89
2021/09/24 01:49:07;;;;;;;57.45;25.75;;;17.70;83.00;;;;;;4957448;28;20173;-88
2021/09/24 01:51:36;;;;;;;46.88;24.02;;;17.70;83.00;;;;;;4956921;29;20180;-89
2021/09/24 01:54:03;;;;;;;53.00;24.95;;;17.70;83.30;;;;;;4957374;28;20219;-89
2021/09/24 01:56:29;;;;;;;56.00;25.90;;;17.70;83.40;;;;;;4957302;29;20620;-88
2021/09/24 01:58:55;;;;;;;51.30;23.60;;;17.60;83.40;;;;;;4957023;29;20184;-88
2021/09/24 02:01:21;;;;;;;52.85;25.52;;;17.80;83.60;;;;;;4956823;29;20652;-90
2021/09/24 02:03:47;;;;;;;53.97;26.57;;;17.90;83.20;;;;;;4957805;28;20209;-89
2021/09/24 02:06:13;;;;;;;57.50;26.77;;;17.80;83.20;;;;;;4957146;29;20173;-89
2021/09/24 02:08:39;;;;;;;61.53;26.03;;;17.90;83.20;;;;;;4956988;29;20431;-89
2021/09/24 02:11:07;;;;;;;61.08;28.00;;;18.10;82.80;;;;;;4956596;29;20427;-89
2021/09/24 02:13:33;;;;;;;71.72;29.65;;;18.10;82.60;;;;;;4956436;28;20204;-88
2021/09/24 02:15:59;;;;;;;66.37;30.07;;;18.10;82.20;;;;;;4956594;28;20612;-88
2021/09/24 02:18:25;;;;;;;66.30;31.00;;;17.90;82.50;;;;;;4958380;28;20423;-88
2021/09/24 02:20:50;;;;;;;76.97;30.80;;;17.80;83.00;;;;;;4956699;29;20191;-88
2021/09/24 02:23:16;;;;;;;80.37;30.80;;;17.80;83.30;;;;;;4955528;28;20236;-89
2021/09/24 02:25:42;;;;;;;64.90;30.50;;;17.80;83.40;;;;;;4956469;28;20331;-88
2021/09/24 02:28:08;;;;;;;84.07;32.10;;;18.00;83.30;;;;;;4956827;28;20176;-88
2021/09/24 02:30:33;;;;;;;70.07;33.13;;;18.00;83.00;;;;;;4957343;28;20181;-88
2021/09/24 02:32:59;;;;;;;83.97;32.67;;;17.90;83.10;;;;;;4941353;29;20200;-89
2021/09/24 02:35:25;;;;;;;78.10;28.97;;;17.90;83.10;;;;;;4957534;28;20432;-88
2021/09/24 02:37:50;;;;;;;81.87;34.50;;;17.90;83.30;;;;;;4957524;28;20236;-89
2021/09/24 02:40:19;;;;;;;70.67;31.33;;;17.90;83.50;;;;;;4957772;28;20184;-88
2021/09/24 02:42:45;;;;;;;78.13;32.08;;;17.90;83.20;;;;;;4957893;28;20219;-88
2021/09/24 02:45:11;;;;;;;63.22;27.65;;;17.90;83.40;;;;;;4958750;28;20187;-89
2021/09/24 02:47:37;;;;;;;80.43;32.70;;;18.00;83.40;;;;;;4956540;28;20172;-88
2021/09/24 02:50:05;;;;;;;72.63;29.20;;;17.90;83.50;;;;;;4956401;28;20503;-89
2021/09/24 02:52:30;;;;;;;74.28;30.40;;;17.80;83.70;;;;;;4956484;28;20219;-89
2021/09/24 02:54:56;;;;;;;82.23;31.53;;;17.80;84.00;;;;;;4956343;28;20204;-89
2021/09/24 02:57:22;;;;;;;77.40;29.83;;;17.80;84.20;;;;;;4957213;28;20188;-89
2021/09/24 02:59:48;;;;;;;66.33;30.17;;;17.80;84.20;;;;;;4956425;28;20193;-89
2021/09/24 03:02:13;;;;;;;57.90;25.83;;;18.00;84.30;;;;;;4956374;28;20668;-89
2021/09/24 03:04:39;;;;;;;63.20;27.30;;;18.20;83.80;;;;;;4957013;28;20892;-89
2021/09/24 03:07:05;;;;;;;61.47;25.40;;;18.20;83.20;;;;;;4957281;28;20267;-89
2021/09/24 03:09:30;;;;;;;48.40;24.57;;;18.10;83.30;;;;;;4956641;28;20214;-89
2021/09/24 03:11:56;;;;;;;44.93;23.90;;;18.00;83.60;;;;;;4956941;28;20239;-88
2021/09/24 03:14:51;;;;;;;46.67;21.33;;;18.00;83.60;;;;;;4955847;28;20201;-88
2021/09/24 03:17:17;;;;;;;46.63;22.20;;;18.10;83.80;;;;;;4955765;28;20169;-88
2021/09/24 03:19:43;;;;;;;44.17;23.83;;;18.10;83.70;;;;;;4955844;28;20503;-88
2021/09/24 03:22:09;;;;;;;45.60;22.58;;;18.10;83.70;;;;;;4956159;28;20184;-89
2021/09/24 03:24:34;;;;;;;44.40;20.70;;;18.20;83.50;;;;;;4956305;28;20180;-88
2021/09/24 03:27:00;;;;;;;36.13;20.27;;;18.30;83.40;;;;;;4956318;28;20275;-88
2021/09/24 03:29:26;;;;;;;46.63;21.60;;;18.30;82.90;;;;;;4957297;28;20180;-89
2021/09/24 03:31:52;;;;;;;39.13;22.80;;;18.30;82.90;;;;;;4955393;28;20177;-88
2021/09/24 03:34:18;;;;;;;47.30;20.27;;;18.20;83.00;;;;;;4957065;28;20196;-89
2021/09/24 03:36:43;;;;;;;46.00;22.37;;;18.40;82.90;;;;;;4955652;28;20193;-89
2021/09/24 03:39:13;;;;;;;30.17;19.53;;;18.50;82.60;;;;;;4955955;28;20176;-89
2021/09/24 03:41:43;;;;;;;39.03;20.55;;;18.60;82.10;;;;;;4955426;28;20259;-89
2021/09/24 03:44:10;;;;;;;41.28;20.27;;;18.50;81.90;;;;;;4955826;28;20583;-88
2021/09/24 03:46:36;;;;;;;36.35;19.83;;;18.50;81.90;;;;;;4956250;28;20244;-89
2021/09/24 03:49:02;;;;;;;48.90;21.23;;;18.60;81.60;;;;;;4954951;28;20548;-88
2021/09/24 03:51:31;;;;;;;39.22;20.52;;;18.60;81.70;;;;;;4955295;28;20719;-88
2021/09/24 03:53:57;;;;;;;41.03;20.15;;;18.70;81.60;;;;;;4955144;28;20224;-88
2021/09/24 03:56:23;;;;;;;39.60;20.07;;;18.70;81.30;;;;;;4955398;28;20211;-88
2021/09/24 03:58:49;;;;;;;39.83;22.60;;;18.70;81.00;;;;;;4954968;28;20464;-88
2021/09/24 04:01:15;;;;;;;35.50;20.00;;;18.70;81.20;;;;;;4954514;28;20225;-88
2021/09/24 04:03:42;;;;;;;40.37;24.10;;;18.50;81.40;;;;;;4955031;28;20474;-88
2021/09/24 04:06:09;;;;;;;39.53;22.33;;;18.50;81.80;;;;;;4957005;28;20247;-88
2021/09/24 04:08:36;;;;;;;44.55;21.45;;;18.40;82.10;;;;;;4955999;28;20181;-88
2021/09/24 04:11:02;;;;;;;44.00;21.50;;;18.50;82.40;;;;;;4957490;28;20200;-88
2021/09/24 04:13:28;;;;;;;36.60;20.05;;;18.60;82.00;;;;;;4955797;28;20239;-88
2021/09/24 04:15:53;;;;;;;37.10;19.50;;;18.60;81.80;;;;;;4955631;28;20184;-88
2021/09/24 04:18:19;;;;;;;40.60;20.50;;;18.50;81.90;;;;;;4956064;28;20647;-88
2021/09/24 04:20:46;;;;;;;45.83;22.10;;;18.50;82.00;;;;;;4956315;28;20644;-88
2021/09/24 04:23:15;;;;;;;40.03;18.95;;;18.40;82.20;;;;;;4956969;28;20358;-88
2021/09/24 04:25:41;;;;;;;43.25;19.98;;;18.40;82.30;;;;;;4957288;28;20243;-88
2021/09/24 04:28:07;;;;;;;38.97;20.57;;;18.50;82.50;;;;;;4956190;28;20173;-88
2021/09/24 04:30:32;;;;;;;46.30;21.90;;;18.50;82.40;;;;;;4954569;28;20184;-88
2021/09/24 04:32:59;;;;;;;30.30;19.90;;;18.70;82.00;;;;;;4954980;28;20538;-88
2021/09/24 04:35:31;;;;;;;38.33;20.92;;;18.60;81.70;;;;;;4955544;28;20267;-87
2021/09/24 04:37:57;;;;;;;41.08;20.80;;;18.60;81.50;;;;;;4954480;28;20187;-88
2021/09/24 04:40:23;;;;;;;39.80;22.00;;;18.50;81.60;;;;;;4954986;28;20184;-90
2021/09/24 04:42:48;;;;;;;32.27;19.33;;;18.40;81.80;;;;;;4954436;28;20303;-88
2021/09/24 04:45:14;;;;;;;45.50;22.87;;;18.50;82.10;;;;;;4954403;28;20663;-88
2021/09/24 04:47:40;;;;;;;41.45;18.65;;;18.40;82.20;;;;;;4955193;28;20641;-89
2021/09/24 04:50:07;;;;;;;35.00;19.90;;;18.40;82.20;;;;;;4953872;28;20180;-88
2021/09/24 04:52:33;;;;;;;41.53;19.60;;;18.50;82.10;;;;;;4960282;28;20220;-89
2021/09/24 04:55:05;;;;;;;37.07;21.43;;;18.50;81.70;;;;;;4956843;28;20192;-89
2021/09/24 04:57:31;;;;;;;38.70;21.40;;;18.40;81.60;;;;;;4955579;28;20412;-88
2021/09/24 04:59:56;;;;;;;30.33;18.23;;;18.50;81.90;;;;;;4957309;28;20185;-88
2021/09/24 05:02:22;;;;;;;41.13;21.30;;;18.50;81.80;;;;;;4957542;28;20216;-89
2021/09/24 05:04:48;;;;;;;33.77;20.27;;;18.40;81.90;;;;;;4958147;28;20518;-88
2021/09/24 05:07:14;;;;;;;38.37;21.63;;;18.30;82.10;;;;;;4957230;28;20172;-88
2021/09/24 05:09:39;;;;;;;35.87;19.10;;;18.30;82.30;;;;;;4958567;28;20334;-88
2021/09/24 05:12:05;;;;;;;33.50;18.20;;;18.40;82.20;;;;;;4955666;28;20758;-88
2021/09/24 05:14:31;;;;;;;37.22;18.15;;;18.50;82.00;;;;;;4956800;28;20181;-89
2021/09/24 05:16:57;;;;;;;29.47;15.67;;;18.50;81.80;;;;;;4958572;28;20208;-90
2021/09/24 05:19:23;;;;;;;35.53;16.77;;;18.50;81.70;;;;;;4959152;28;20511;-89
2021/09/24 05:21:49;;;;;;;32.30;17.30;;;18.60;81.50;;;;;;4959976;28;20230;-89
2021/09/24 05:24:14;;;;;;;30.97;16.50;;;18.50;81.40;;;;;;4959300;28;20219;-89
2021/09/24 05:26:40;;;;;;;33.33;18.20;;;18.50;81.40;;;;;;4959252;28;20181;-88
2021/09/24 05:29:06;;;;;;;34.53;15.77;;;18.70;81.30;;;;;;4959849;28;20184;-88
2021/09/24 05:31:32;;;;;;;37.55;15.95;;;18.80;80.60;;;;;;4957659;28;20203;-89
2021/09/24 05:34:01;;;;;;;31.08;14.77;;;18.70;80.50;;;;;;4958816;28;20219;-88
2021/09/24 05:36:27;;;;;;;28.15;14.45;;;18.60;80.70;;;;;;4970557;28;20199;-89
2021/09/24 05:38:53;;;;;;;28.83;15.57;;;18.60;80.80;;;;;;4979055;28;20311;-88
2021/09/24 05:41:19;;;;;;;27.03;15.90;;;18.50;81.00;;;;;;4979174;28;20183;-89
2021/09/24 05:43:44;;;;;;;24.58;14.88;;;18.60;81.10;;;;;;4962806;28;20223;-89
2021/09/24 05:46:10;;;;;;;32.33;15.57;;;18.70;80.90;;;;;;4978640;28;20176;-89
2021/09/24 05:48:36;;;;;;;21.87;14.50;;;18.70;80.60;;;;;;4980323;28;20184;-88
2021/09/24 05:51:02;;;;;;;30.43;14.60;;;18.70;80.20;;;;;;4980461;28;20203;-88
2021/09/24 05:53:28;;;;;;;26.23;13.98;;;18.80;79.90;;;;;;4981085;28;20463;-88
2021/09/24 05:55:55;;;;;;;23.10;14.30;;;18.80;79.60;;;;;;4988644;28;20172;-89
2021/09/24 05:58:22;;;;;;;24.80;15.02;;;18.60;79.80;;;;;;4982524;28;20477;-89
2021/09/24 06:00:48;;;;;;;22.55;13.45;;;18.60;80.10;;;;;;4981767;28;20666;-89
2021/09/24 06:03:13;;;;;;;31.90;13.17;;;18.60;80.30;;;;;;4977865;28;20212;-89
2021/09/24 06:05:39;;;;;;;24.77;13.60;;;18.50;80.60;;;;;;4979042;28;20267;-90
2021/09/24 06:08:05;;;;;;;25.07;12.70;;;18.60;80.60;;;;;;4980339;28;20453;-89
2021/09/24 06:10:31;;;;;;;22.13;12.70;;;18.50;80.50;;;;;;4980041;28;20172;-90
2021/09/24 06:12:57;;;;;;;29.23;13.33;;;18.60;80.50;;;;;;4978337;28;20207;-90
2021/09/24 06:15:24;;;;;;;21.53;13.10;;;18.80;80.10;;;;;;4979212;28;20187;-89
2021/09/24 06:17:51;;;;;;;18.85;13.43;;;18.80;79.70;;;;;;4978538;28;20424;-89
2021/09/24 06:20:18;;;;;;;18.77;12.70;;;18.70;80.00;;;;;;4977081;28;20187;-90
2021/09/24 06:22:44;;;;;;;21.25;12.50;;;18.80;80.20;;;;;;4976187;28;20207;-89
2021/09/24 06:25:23;;;;;;;22.92;15.35;;;18.90;79.90;;;;;;4976932;28;20222;-89
2021/09/24 06:27:49;;;;;;;28.27;13.60;;;18.80;79.50;;;;;;4975927;28;20488;-89
2021/09/24 06:30:18;;;;;;;22.37;13.30;;;19.00;79.20;;;;;;4976704;28;20186;-90
2021/09/24 06:32:45;;;;;;;27.20;14.57;;;19.10;78.60;;;;;;4976391;28;20439;-90
2021/09/24 06:35:12;;;;;;;24.08;12.00;;;19.00;78.70;;;;;;4977941;28;20184;-93
2021/09/24 06:37:46;;;;;;;29.13;12.20;;;19.10;78.70;;;;;;4989498;28;20167;-94
2021/09/24 06:48:01;;;;;;;17.98;10.75;;;19.20;77.80;;;;;;5614040;23;20260;-94
2021/09/24 06:50:35;;;;;;;18.80;10.07;;;19.20;77.80;;;;;;4998232;28;20211;-95
2021/09/24 06:53:16;;;;;;;17.88;11.00;;;19.10;77.90;;;;;;4997255;28;20212;-94
2021/09/24 06:55:45;;;;;;;26.58;12.80;;;19.00;78.20;;;;;;4999748;28;20203;-94
2021/09/24 06:58:14;;;;;;;20.45;10.52;;;19.10;78.40;;;;;;5298266;23;20228;-96
2021/09/24 07:00:40;;;;;;;18.85;11.10;;;19.30;78.30;;;;;;4998804;28;20244;-95
2021/09/24 07:03:06;;;;;;;18.40;12.10;;;19.40;77.70;;;;;;4998425;28;20235;-92
2021/09/24 07:05:32;;;;;;;19.70;11.70;;;19.30;77.80;;;;;;4982865;28;20176;-95
2021/09/24 07:07:58;;;;;;;17.47;9.97;;;19.40;77.90;;;;;;4994770;28;20210;-95
2021/09/24 07:10:24;;;;;;;21.33;11.40;;;19.40;77.90;;;;;;4991221;28;20462;-95
2021/09/24 07:12:58;;;;;;;20.57;12.10;;;19.50;77.80;;;;;;4996556;28;20211;-96
2021/09/24 07:15:23;;;;;;;19.58;10.18;;;19.50;77.40;;;;;;4997064;28;20171;-96
2021/09/24 07:17:49;;;;;;;14.00;9.50;;;19.50;77.40;;;;;;4990637;28;20215;-95
2021/09/24 07:20:15;;;;;;;18.60;11.20;;;19.50;77.40;;;;;;4991222;28;20256;-95
2021/09/24 07:23:20;;;;;;;20.30;11.60;;;19.50;77.20;;;;;;4981710;28;20222;-93
2021/09/24 07:36:06;;;;;;;13.77;10.05;;;20.00;75.70;;;;;;4968905;26;20694;-95
2021/09/24 07:38:32;;;;;;;23.30;11.02;;;20.00;75.60;;;;;;4981841;28;20185;-94
2021/09/24 07:40:57;;;;;;;12.55;9.13;;;20.10;75.40;;;;;;4971411;29;20194;-95
2021/09/24 07:43:23;;;;;;;15.33;9.73;;;20.40;74.70;;;;;;4976394;28;20227;-96
2021/09/24 07:45:49;;;;;;;15.37;9.50;;;20.40;74.10;;;;;;4977340;28;20183;-95
2021/09/24 07:48:15;;;;;;;15.97;9.80;;;20.50;74.10;;;;;;4974020;28;20447;-95
2021/09/24 07:50:41;;;;;;;14.13;8.03;;;20.50;73.80;;;;;;4974503;28;20503;-95
2021/09/24 07:53:07;;;;;;;18.97;9.33;;;20.70;72.90;;;;;;4976748;28;20432;-96
2021/09/24 07:55:33;;;;;;;12.00;8.17;;;20.80;72.40;;;;;;4975827;28;20432;-95
2021/09/24 07:57:59;;;;;;;13.82;8.63;;;20.80;72.30;;;;;;4957342;29;20192;-95
2021/09/24 08:00:28;;;;;;;12.90;8.88;;;20.80;72.40;;;;;;4969710;28;20243;-95
2021/09/24 08:02:55;;;;;;;15.40;8.75;;;20.80;71.70;;;;;;4974890;28;20231;-95
2021/09/24 08:05:21;;;;;;;15.10;8.57;;;20.90;71.80;;;;;;4974725;28;20173;-96
2021/09/24 08:07:47;;;;;;;11.77;7.93;;;21.00;71.20;;;;;;4975660;28;20176;-95
2021/09/24 08:10:13;;;;;;;13.47;8.00;;;20.90;71.30;;;;;;4972743;28;20243;-96
2021/09/24 08:12:40;;;;;;;15.50;8.95;;;20.70;71.50;;;;;;4976441;28;20292;-96
2021/09/24 08:15:07;;;;;;;15.75;8.52;;;20.70;71.90;;;;;;4977373;28;20192;-95
2021/09/24 08:17:33;;;;;;;11.00;8.40;;;20.60;72.10;;;;;;4977038;28;20172;-94
2021/09/24 08:19:59;;;;;;;11.13;8.80;;;20.50;72.50;;;;;;4972648;28;20231;-94
2021/09/24 08:22:26;;;;;;;11.10;9.17;;;20.50;72.60;;;;;;4959470;28;20472;-94
2021/09/24 08:24:51;;;;;;;12.25;9.38;;;20.30;72.70;;;;;;4962426;28;20191;-94
2021/09/24 08:27:17;;;;;;;19.80;9.50;;;20.30;73.30;;;;;;4959380;28;20224;-93
2021/09/24 08:29:43;;;;;;;18.77;10.23;;;20.20;73.60;;;;;;4957715;28;20177;-93
2021/09/24 08:32:09;;;;;;;15.80;9.40;;;20.20;73.70;;;;;;4959496;28;20176;-93
2021/09/24 08:34:35;;;;;;;12.73;8.90;;;20.40;73.50;;;;;;4966989;28;20188;-93
2021/09/24 08:37:02;;;;;;;16.07;9.37;;;20.30;73.50;;;;;;4971960;28;20250;-92
2021/09/24 08:39:28;;;;;;;15.10;10.20;;;20.20;73.80;;;;;;4973680;28;20432;-93
2021/09/24 08:41:53;;;;;;;22.00;11.18;;;20.10;74.20;;;;;;4972311;28;20196;-93
2021/09/24 08:44:24;;;;;;;15.40;9.93;;;20.10;74.50;;;;;;4967555;28;20283;-93
2021/09/24 08:46:51;;;;;;;16.80;10.30;;;20.00;74.70;;;;;;4961235;28;20424;-94
2021/09/24 08:49:19;;;;;;;13.40;9.70;;;19.90;75.00;;;;;;4959552;28;20246;-93
2021/09/24 08:51:45;;;;;;;27.02;11.13;;;20.10;75.00;;;;;;4962174;28;20251;-92
2021/09/24 08:54:11;;;;;;;19.60;11.73;;;20.00;74.70;;;;;;4960395;28;20216;-92
2021/09/24 08:56:37;;;;;;;20.20;12.30;;;19.80;75.00;;;;;;4959792;28;20560;-92
2021/09/24 08:59:03;;;;;;;18.48;10.70;;;19.80;75.50;;;;;;4959767;29;20499;-92
2021/09/24 09:01:29;;;;;;;15.90;9.93;;;19.90;75.80;;;;;;4959760;29;20657;-92
2021/09/24 09:03:57;;;;;;;15.18;10.05;;;20.00;75.60;;;;;;4943221;29;20216;-93
2021/09/24 09:06:27;;;;;;;24.27;10.30;;;20.10;75.20;;;;;;4959761;28;20180;-92
2021/09/24 09:09:03;;;;;;;27.10;12.43;;;20.20;74.90;;;;;;4960099;29;20271;-93
2021/09/24 09:11:29;;;;;;;18.17;11.50;;;20.10;74.90;;;;;;4959965;28;20187;-92
2021/09/24 09:13:57;;;;;;;28.67;11.27;;;20.10;75.20;;;;;;4943257;29;20224;-93
2021/09/24 09:16:29;;;;;;;21.05;11.70;;;20.10;75.10;;;;;;4960199;28;20181;-92
2021/09/24 09:19:16;;;;;;;15.27;10.48;;;20.20;74.90;;;;;;4959518;28;20181;-93
2021/09/24 09:21:44;;;;;;;25.38;10.98;;;20.50;74.90;;;;;;4959668;29;20199;-92
2021/09/24 09:24:22;;;;;;;16.30;10.93;;;20.50;74.10;;;;;;4956175;28;20224;-92
2021/09/24 09:26:48;;;;;;;18.60;9.80;;;20.50;74.00;;;;;;4940196;29;20270;-93
2021/09/24 09:29:15;;;;;;;16.02;9.73;;;20.60;74.00;;;;;;4941949;29;20545;-93
2021/09/24 09:31:40;;;;;;;22.17;10.55;;;20.70;73.80;;;;;;4940383;29;20177;-93
2021/09/24 09:34:11;;;;;;;21.13;11.53;;;20.90;73.60;;;;;;4940056;29;20227;-92
2021/09/24 09:36:38;;;;;;;21.37;10.50;;;21.10;73.00;;;;;;4961689;28;20910;-93
2021/09/24 09:39:15;;;;;;;17.07;10.00;;;21.50;72.00;;;;;;4978437;28;20487;-93
2021/09/24 09:41:49;;;;;;;18.60;9.80;;;21.50;70.90;;;;;;4979987;28;20430;-93
2021/09/24 09:44:26;;;;;;;12.07;8.80;;;21.90;70.00;;;;;;4978961;28;20572;-92
2021/09/24 09:46:53;;;;;;;15.13;10.67;;;22.10;68.90;;;;;;4980836;28;20415;-93
2021/09/24 09:49:19;;;;;;;16.77;10.03;;;22.20;66.70;;;;;;4980263;28;20453;-93
2021/09/24 09:51:47;;;;;;;14.50;10.07;;;22.30;66.10;;;;;;4978062;28;20474;-93
2021/09/24 09:54:28;;;;;;;14.17;9.60;;;22.20;66.10;;;;;;4978189;28;20459;-93
2021/09/24 09:57:13;;;;;;;20.90;10.37;;;22.00;66.20;;;;;;4978522;28;20481;-93
2021/09/24 09:59:39;;;;;;;12.73;9.80;;;22.10;66.30;;;;;;4978064;28;20497;-93
2021/09/24 10:02:21;;;;;;;15.47;10.70;;;21.90;66.30;;;;;;4978559;28;20427;-93
2021/09/24 10:04:51;;;;;;;18.53;9.67;;;21.70;66.80;;;;;;4977829;28;20176;-93
2021/09/24 10:07:45;;;;;;;13.30;9.10;;;21.80;67.00;;;;;;4979387;28;20435;-93
2021/09/24 10:10:13;;;;;;;10.90;9.00;;;22.00;67.00;;;;;;4943575;28;20445;-94
2021/09/24 10:12:52;;;;;;;11.13;7.63;;;22.20;66.70;;;;;;4946095;28;20452;-92
2021/09/24 10:15:21;;;;;;;9.90;6.60;;;22.20;65.50;;;;;;4978023;28;20422;-92
2021/09/24 10:17:47;;;;;;;15.70;8.30;;;22.00;65.20;;;;;;4980145;28;20407;-93
2021/09/24 10:20:14;;;;;;;14.33;7.30;;;22.00;65.10;;;;;;4979639;28;20415;-93
2021/09/24 10:22:43;;;;;;;17.37;6.97;;;22.30;64.80;;;;;;4978820;28;20467;-92
2021/09/24 10:25:38;;;;;;;6.33;5.73;;;22.50;64.60;;;;;;4978949;28;20419;-93
2021/09/24 10:28:10;;;;;;;10.10;6.50;;;22.60;63.60;;;;;;4966265;28;20499;-93
2021/09/24 10:30:37;;;;;;;8.40;5.97;;;22.80;63.20;;;;;;4981154;28;20426;-93
2021/09/24 10:33:10;;;;;;;9.23;5.27;;;22.90;63.00;;;;;;4979451;28;20451;-93
2021/09/24 10:35:55;;;;;;;6.80;5.33;;;23.00;62.40;;;;;;4964524;28;20495;-91
2021/09/24 10:38:23;;;;;;;6.17;5.00;;;23.20;61.80;;;;;;4977383;28;20502;-91
2021/09/24 10:41:16;;;;;;;8.70;5.23;;;23.40;60.80;;;;;;4977357;28;20442;-91
2021/09/24 10:43:54;;;;;;;7.50;4.93;;;23.50;59.90;;;;;;4979920;28;20533;-91
2021/09/24 10:46:29;;;;;;;8.87;4.70;;;23.60;59.00;;;;;;4977031;28;20449;-93
2021/09/24 10:49:15;;;;;;;14.07;4.53;;;23.70;58.70;;;;;;4979388;28;20462;-94
2021/09/24 10:52:08;;;;;;;6.03;4.20;;;23.90;57.90;;;;;;4979014;28;20534;-92
2021/09/24 10:55:01;;;;;;;8.23;4.20;;;24.00;57.40;;;;;;4978483;28;20430;-93
2021/09/24 10:57:57;;;;;;;4.07;3.43;;;24.00;57.50;;;;;;4979130;28;20423;-94
2021/09/24 11:00:29;;;;;;;8.00;3.87;;;24.00;57.00;;;;;;4977818;28;20435;-94
2021/09/24 11:03:10;;;;;;;6.20;3.30;;;24.10;56.90;;;;;;4976573;28;20993;-91
2021/09/24 11:05:57;;;;;;;4.50;3.40;;;23.60;56.00;;;;;;4979893;28;20418;-94
2021/09/24 11:08:58;;;;;;;5.23;2.93;;;23.60;56.00;;;;;;4970437;28;20931;-92
2021/09/24 11:11:30;;;;;;;18.57;3.30;;;23.70;56.10;;;;;;4960444;28;20475;-95
2021/09/24 11:14:20;;;;;;;9.30;4.23;;;23.40;56.00;;;;;;4963317;28;20455;-95
2021/09/24 11:16:48;;;;;;;7.83;3.43;;;23.40;56.90;;;;;;4957748;29;20432;-91
2021/09/24 11:19:46;;;;;;;6.07;3.07;;;23.50;57.60;;;;;;4962433;28;20455;-93
2021/09/24 11:22:38;;;;;;;5.80;3.50;;;23.60;57.30;;;;;;4967933;28;20453;-93
2021/09/24 11:25:07;;;;;;;7.30;3.40;;;23.60;56.50;;;;;;4977252;28;20434;-93
2021/09/24 11:28:14;;;;;;;3.83;3.20;;;23.30;57.10;;;;;;4982927;28;20419;-95
2021/09/24 11:30:58;;;;;;;4.90;3.30;;;23.30;57.50;;;;;;4977748;28;20423;-95
2021/09/24 11:33:53;;;;;;;5.60;3.10;;;23.20;57.90;;;;;;4987546;28;20466;-95
2021/09/24 11:40:47;;;;;;;4.30;2.77;;;23.40;56.40;;;;;;4972639;29;20416;-95
2021/09/24 11:50:51;;;;;;;;;;;;;;;;;;;;;
2021/09/24 12:18:05;;;;;;;5.17;2.80;;;24.30;53.70;;;;;;4976884;28;20442;-95
2021/09/24 12:21:30;;;;;;;;;;;;;;;;;;;;;
2021/09/24 12:24:58;;;;;;;8.10;2.57;;;24.40;52.10;;;;;;4999481;28;20564;-95
2021/09/24 12:28:06;;;;;;;6.23;2.90;;;24.50;51.70;;;;;;4906278;29;20436;-93
2021/09/24 12:38:21;;;;;;;5.77;2.97;;;24.70;51.70;;;;;;4952380;28;20429;-95
2021/09/24 12:48:09;;;;;;;;;;;;;;;;;;;;;
2021/09/24 12:51:03;;;;;;;4.63;3.00;;;24.40;51.40;;;;;;4999206;28;20505;-95
2021/09/24 12:54:13;;;;;;;;;;;;;;;;;;;;;
2021/09/24 13:07:27;;;;;;;;;;;;;;;;;;;;;
2021/09/24 13:10:08;;;;;;;4.00;2.63;;;24.60;50.00;;;;;;4963134;29;20491;-95
2021/09/24 13:12:42;;;;;;;6.07;2.50;;;24.90;50.10;;;;;;4960696;28;20575;-95
2021/09/24 13:15:31;;;;;;;6.73;2.50;;;24.80;49.20;;;;;;4961449;28;20461;-95
2021/09/24 13:18:32;;;;;;;3.63;2.63;;;24.80;49.50;;;;;;4959414;28;20432;-95
2021/09/24 13:21:00;;;;;;;7.20;2.80;;;24.60;48.80;;;;;;4947471;29;20456;-93
2021/09/24 13:23:49;;;;;;;6.47;2.50;;;24.90;49.30;;;;;;4959011;28;20606;-93
2021/09/24 13:26:43;;;;;;;5.30;2.47;;;25.30;48.70;;;;;;4961400;28;20408;-92
2021/09/24 13:29:51;;;;;;;5.10;2.63;;;25.30;48.80;;;;;;4978255;28;20449;-95
2021/09/24 13:55:24;;;;;;;3.30;2.60;;;24.20;53.50;;;;;;4962964;28;20496;-94
2021/09/24 13:57:53;;;;;;;4.70;2.10;;;24.40;53.90;;;;;;4963204;28;20429;-93
2021/09/24 14:00:32;;;;;;;5.77;1.87;;;24.10;54.50;;;;;;4966964;28;20454;-92
2021/09/24 14:03:02;;;;;;;3.03;1.70;;;24.20;55.00;;;;;;4978338;28;20471;-92
2021/09/24 14:06:34;;;;;;;;;;;;;;;;;;;;;
2021/09/24 14:09:10;;;;;;;3.10;1.67;;;24.40;54.60;;;;;;4993503;28;20427;-93
2021/09/24 14:11:38;;;;;;;2.03;1.63;;;24.60;54.30;;;;;;4978675;28;20496;-92
2021/09/24 14:18:49;;;;;;;;;;;;;;;;;;;;;
2021/09/24 14:21:54;;;;;;;2.20;1.40;;;24.40;54.10;;;;;;4956481;28;20464;-91
2021/09/24 14:31:27;;;;;;;1.60;1.30;;;24.40;54.30;;;;;;4948061;28;20455;-93
2021/09/24 14:37:50;;;;;;;1.60;1.40;;;23.90;54.60;;;;;;4980191;28;20473;-91
2021/09/24 14:46:15;;;;;;;2.90;1.57;;;24.20;55.00;;;;;;5447558;23;20505;-91
2021/09/24 14:48:40;;;;;;;7.60;1.60;;;24.20;54.40;;;;;;4982640;28;20503;-90
2021/09/24 14:51:06;;;;;;;5.63;1.60;;;24.00;55.00;;;;;;4990361;28;20191;-90
2021/09/24 14:53:37;;;;;;;1.63;1.53;;;24.10;55.30;;;;;;4967034;28;20200;-88
2021/09/24 14:56:03;;;;;;;2.40;1.83;;;24.20;54.80;;;;;;4976094;28;20424;-88
2021/09/24 14:58:29;;;;;;;1.57;1.20;;;24.20;54.70;;;;;;4982284;28;20431;-88
2021/09/24 15:00:54;;;;;;;3.33;1.53;;;24.20;54.60;;;;;;4981203;28;20416;-89
2021/09/24 15:03:20;;;;;;;1.40;1.20;;;24.20;54.60;;;;;;4971844;28;20452;-88
2021/09/24 15:05:47;;;;;;;1.93;1.20;;;24.20;54.00;;;;;;4980417;28;20244;-88